sensor_id;sensor_type;location;lat;lon;timestamp;P1;durP1;ratioP1;P2;durP2;ratioP2
56285;SDS011;42191;47.562;9.686;2023-01-01T00:00:23;89.10;;;75.30;;
56285;SDS011;42191;47.562;9.686;2023-01-01T00:02:49;125.57;;;95.75;;
56285;SDS011;42191;47.562;9.686;2023-01-01T00:05:15;136.93;;;104.88;;
56285;SDS011;42191;47.562;9.686;2023-01-01T00:07:41;77.95;;;69.50;;
56285;SDS011;42191;47.562;9.686;2023-01-01T00:10:09;64.68;;;57.85;;
56285;SDS011;42191;47.562;9.686;2023-01-01T00:12:54;58.42;;;52.78;;
56285;SDS011;42191;47.562;9.686;2023-01-01T00:15:21;55.63;;;50.63;;
56285;SDS011;42191;47.562;9.686;2023-01-01T00:17:47;53.58;;;48.78;;
56285;SDS011;42191;47.562;9.686;2023-01-01T00:20:13;55.55;;;50.67;;
56285;SDS011;42191;47.562;9.686;2023-01-01T00:22:40;56.47;;;51.35;;
56285;SDS011;42191;47.562;9.686;2023-01-01T00:25:06;56.90;;;51.65;;
56285;SDS011;42191;47.562;9.686;2023-01-01T00:27:34;55.58;;;50.47;;
56285;SDS011;42191;47.562;9.686;2023-01-01T00:30:01;59.92;;;54.22;;
56285;SDS011;42191;47.562;9.686;2023-01-01T00:32:28;56.75;;;51.60;;
56285;SDS011;42191;47.562;9.686;2023-01-01T00:34:54;58.20;;;52.90;;
56285;SDS011;42191;47.562;9.686;2023-01-01T00:37:20;56.88;;;51.58;;
56285;SDS011;42191;47.562;9.686;2023-01-01T00:39:46;53.72;;;49.10;;
56285;SDS011;42191;47.562;9.686;2023-01-01T00:42:12;50.80;;;46.40;;
56285;SDS011;42191;47.562;9.686;2023-01-01T00:44:38;52.67;;;47.97;;
56285;SDS011;42191;47.562;9.686;2023-01-01T00:47:04;50.33;;;45.92;;
56285;SDS011;42191;47.562;9.686;2023-01-01T00:49:30;52.58;;;48.08;;
56285;SDS011;42191;47.562;9.686;2023-01-01T00:51:56;50.28;;;45.75;;
56285;SDS011;42191;47.562;9.686;2023-01-01T00:54:23;50.33;;;45.75;;
56285;SDS011;42191;47.562;9.686;2023-01-01T00:56:49;49.20;;;45.10;;
56285;SDS011;42191;47.562;9.686;2023-01-01T00:59:15;47.47;;;43.50;;
56285;SDS011;42191;47.562;9.686;2023-01-01T01:01:41;49.47;;;45.33;;
56285;SDS011;42191;47.562;9.686;2023-01-01T01:04:07;55.25;;;50.20;;
56285;SDS011;42191;47.562;9.686;2023-01-01T01:06:33;63.50;;;57.30;;
56285;SDS011;42191;47.562;9.686;2023-01-01T01:09:00;68.10;;;61.40;;
56285;SDS011;42191;47.562;9.686;2023-01-01T01:11:26;67.65;;;60.92;;
56285;SDS011;42191;47.562;9.686;2023-01-01T01:13:53;74.00;;;66.28;;
56285;SDS011;42191;47.562;9.686;2023-01-01T01:18:53;69.97;;;62.70;;
56285;SDS011;42191;47.562;9.686;2023-01-01T01:21:22;71.05;;;63.90;;
56285;SDS011;42191;47.562;9.686;2023-01-01T01:23:48;71.35;;;63.90;;
56285;SDS011;42191;47.562;9.686;2023-01-01T01:26:25;72.15;;;64.88;;
56285;SDS011;42191;47.562;9.686;2023-01-01T01:28:53;66.05;;;59.28;;
56285;SDS011;42191;47.562;9.686;2023-01-01T01:31:21;69.57;;;62.20;;
56285;SDS011;42191;47.562;9.686;2023-01-01T01:33:48;71.30;;;63.75;;
56285;SDS011;42191;47.562;9.686;2023-01-01T01:36:15;62.22;;;56.00;;
56285;SDS011;42191;47.562;9.686;2023-01-01T01:38:42;63.78;;;57.13;;
56285;SDS011;42191;47.562;9.686;2023-01-01T01:41:09;67.68;;;61.30;;
56285;SDS011;42191;47.562;9.686;2023-01-01T01:46:09;65.13;;;58.80;;
56285;SDS011;42191;47.562;9.686;2023-01-01T01:48:48;62.50;;;56.30;;
56285;SDS011;42191;47.562;9.686;2023-01-01T01:51:19;63.72;;;57.50;;
56285;SDS011;42191;47.562;9.686;2023-01-01T01:53:52;59.78;;;54.00;;
56285;SDS011;42191;47.562;9.686;2023-01-01T01:56:24;61.80;;;55.50;;
56285;SDS011;42191;47.562;9.686;2023-01-01T01:58:54;61.38;;;55.38;;
56285;SDS011;42191;47.562;9.686;2023-01-01T02:01:20;61.80;;;56.00;;
56285;SDS011;42191;47.562;9.686;2023-01-01T02:03:52;65.18;;;58.58;;
56285;SDS011;42191;47.562;9.686;2023-01-01T02:06:27;58.13;;;52.55;;
56285;SDS011;42191;47.562;9.686;2023-01-01T02:08:55;62.97;;;56.63;;
56285;SDS011;42191;47.562;9.686;2023-01-01T02:11:23;61.38;;;55.63;;
56285;SDS011;42191;47.562;9.686;2023-01-01T02:13:49;63.70;;;57.15;;
56285;SDS011;42191;47.562;9.686;2023-01-01T02:19:25;58.67;;;53.25;;
56285;SDS011;42191;47.562;9.686;2023-01-01T02:22:01;55.25;;;50.22;;
56285;SDS011;42191;47.562;9.686;2023-01-01T02:30:06;50.72;;;46.15;;
56285;SDS011;42191;47.562;9.686;2023-01-01T02:32:35;53.38;;;48.53;;
56285;SDS011;42191;47.562;9.686;2023-01-01T02:35:13;50.75;;;46.30;;
56285;SDS011;42191;47.562;9.686;2023-01-01T02:38:02;53.17;;;48.40;;
56285;SDS011;42191;47.562;9.686;2023-01-01T02:40:33;51.28;;;46.70;;
56285;SDS011;42191;47.562;9.686;2023-01-01T02:43:03;54.00;;;49.22;;
56285;SDS011;42191;47.562;9.686;2023-01-01T02:45:30;53.50;;;48.33;;
56285;SDS011;42191;47.562;9.686;2023-01-01T02:47:57;54.50;;;49.55;;
56285;SDS011;42191;47.562;9.686;2023-01-01T02:50:28;53.60;;;48.95;;
56285;SDS011;42191;47.562;9.686;2023-01-01T02:53:00;52.13;;;47.40;;
56285;SDS011;42191;47.562;9.686;2023-01-01T02:58:09;46.25;;;42.55;;
56285;SDS011;42191;47.562;9.686;2023-01-01T03:01:07;47.28;;;43.33;;
56285;SDS011;42191;47.562;9.686;2023-01-01T03:04:00;50.63;;;46.15;;
56285;SDS011;42191;47.562;9.686;2023-01-01T03:06:42;48.38;;;43.97;;
56285;SDS011;42191;47.562;9.686;2023-01-01T03:12:20;48.50;;;44.45;;
56285;SDS011;42191;47.562;9.686;2023-01-01T03:14:51;46.95;;;43.10;;
56285;SDS011;42191;47.562;9.686;2023-01-01T03:17:27;48.22;;;44.17;;
56285;SDS011;42191;47.562;9.686;2023-01-01T03:20:00;50.72;;;46.72;;
56285;SDS011;42191;47.562;9.686;2023-01-01T03:22:31;51.03;;;46.80;;
56285;SDS011;42191;47.562;9.686;2023-01-01T03:25:02;49.45;;;45.10;;
56285;SDS011;42191;47.562;9.686;2023-01-01T03:30:16;50.95;;;46.60;;
56285;SDS011;42191;47.562;9.686;2023-01-01T03:33:45;49.10;;;44.75;;
56285;SDS011;42191;47.562;9.686;2023-01-01T03:36:00;51.83;;;47.35;;
56285;SDS011;42191;47.562;9.686;2023-01-01T03:38:45;53.78;;;48.95;;
56285;SDS011;42191;47.562;9.686;2023-01-01T03:41:16;52.17;;;47.67;;
56285;SDS011;42191;47.562;9.686;2023-01-01T03:43:51;51.30;;;46.65;;
56285;SDS011;42191;47.562;9.686;2023-01-01T03:46:25;53.38;;;48.58;;
56285;SDS011;42191;47.562;9.686;2023-01-01T03:48:54;56.90;;;51.65;;
56285;SDS011;42191;47.562;9.686;2023-01-01T03:56:58;56.88;;;51.75;;
56285;SDS011;42191;47.562;9.686;2023-01-01T04:00:03;56.28;;;50.88;;
56285;SDS011;42191;47.562;9.686;2023-01-01T04:02:47;55.33;;;50.30;;
56285;SDS011;42191;47.562;9.686;2023-01-01T04:05:31;57.85;;;52.40;;
56285;SDS011;42191;47.562;9.686;2023-01-01T04:08:01;57.35;;;52.08;;
56285;SDS011;42191;47.562;9.686;2023-01-01T04:10:29;54.25;;;49.03;;
56285;SDS011;42191;47.562;9.686;2023-01-01T04:12:57;56.20;;;50.97;;
56285;SDS011;42191;47.562;9.686;2023-01-01T04:15:26;53.97;;;49.03;;
56285;SDS011;42191;47.562;9.686;2023-01-01T04:17:52;54.17;;;49.33;;
56285;SDS011;42191;47.562;9.686;2023-01-01T04:20:19;57.50;;;52.20;;
56285;SDS011;42191;47.562;9.686;2023-01-01T04:22:45;56.20;;;51.28;;
56285;SDS011;42191;47.562;9.686;2023-01-01T04:25:12;58.10;;;52.60;;
56285;SDS011;42191;47.562;9.686;2023-01-01T04:27:39;58.50;;;53.03;;
56285;SDS011;42191;47.562;9.686;2023-01-01T04:30:06;55.13;;;50.13;;
56285;SDS011;42191;47.562;9.686;2023-01-01T04:32:35;56.97;;;51.67;;
56285;SDS011;42191;47.562;9.686;2023-01-01T04:35:01;60.72;;;55.03;;
56285;SDS011;42191;47.562;9.686;2023-01-01T04:37:28;57.25;;;51.80;;
56285;SDS011;42191;47.562;9.686;2023-01-01T04:39:54;57.85;;;52.13;;
56285;SDS011;42191;47.562;9.686;2023-01-01T04:42:20;57.03;;;51.65;;
56285;SDS011;42191;47.562;9.686;2023-01-01T04:44:46;59.47;;;53.72;;
56285;SDS011;42191;47.562;9.686;2023-01-01T04:47:12;56.58;;;51.45;;
56285;SDS011;42191;47.562;9.686;2023-01-01T04:49:38;57.78;;;52.55;;
56285;SDS011;42191;47.562;9.686;2023-01-01T04:52:04;57.22;;;51.83;;
56285;SDS011;42191;47.562;9.686;2023-01-01T04:54:30;59.50;;;54.05;;
56285;SDS011;42191;47.562;9.686;2023-01-01T04:56:57;61.58;;;55.83;;
56285;SDS011;42191;47.562;9.686;2023-01-01T04:59:23;61.63;;;55.75;;
56285;SDS011;42191;47.562;9.686;2023-01-01T05:01:49;59.15;;;53.80;;
56285;SDS011;42191;47.562;9.686;2023-01-01T05:04:15;59.20;;;53.70;;
56285;SDS011;42191;47.562;9.686;2023-01-01T05:06:42;58.50;;;53.15;;
56285;SDS011;42191;47.562;9.686;2023-01-01T05:09:08;58.75;;;53.33;;
56285;SDS011;42191;47.562;9.686;2023-01-01T05:11:35;62.83;;;56.70;;
56285;SDS011;42191;47.562;9.686;2023-01-01T05:14:02;58.95;;;53.22;;
56285;SDS011;42191;47.562;9.686;2023-01-01T05:16:30;60.15;;;54.58;;
56285;SDS011;42191;47.562;9.686;2023-01-01T05:18:58;59.85;;;54.13;;
56285;SDS011;42191;47.562;9.686;2023-01-01T05:21:34;60.72;;;55.03;;
56285;SDS011;42191;47.562;9.686;2023-01-01T05:24:02;57.53;;;51.95;;
56285;SDS011;42191;47.562;9.686;2023-01-01T05:26:32;58.38;;;53.05;;
56285;SDS011;42191;47.562;9.686;2023-01-01T05:29:00;61.90;;;55.80;;
56285;SDS011;42191;47.562;9.686;2023-01-01T05:31:27;58.85;;;53.22;;
56285;SDS011;42191;47.562;9.686;2023-01-01T05:33:55;57.88;;;52.55;;
56285;SDS011;42191;47.562;9.686;2023-01-01T05:36:25;55.05;;;49.92;;
56285;SDS011;42191;47.562;9.686;2023-01-01T05:38:53;56.08;;;51.15;;
56285;SDS011;42191;47.562;9.686;2023-01-01T05:41:20;53.63;;;48.58;;
56285;SDS011;42191;47.562;9.686;2023-01-01T05:43:47;53.13;;;48.28;;
56285;SDS011;42191;47.562;9.686;2023-01-01T05:46:17;51.83;;;47.03;;
56285;SDS011;42191;47.562;9.686;2023-01-01T05:48:46;51.05;;;46.40;;
56285;SDS011;42191;47.562;9.686;2023-01-01T05:51:15;53.13;;;48.58;;
56285;SDS011;42191;47.562;9.686;2023-01-01T05:53:52;50.05;;;45.83;;
56285;SDS011;42191;47.562;9.686;2023-01-01T05:56:18;50.08;;;45.78;;
56285;SDS011;42191;47.562;9.686;2023-01-01T05:58:45;50.67;;;46.25;;
56285;SDS011;42191;47.562;9.686;2023-01-01T06:03:39;50.53;;;45.97;;
56285;SDS011;42191;47.562;9.686;2023-01-01T06:06:08;48.75;;;44.85;;
56285;SDS011;42191;47.562;9.686;2023-01-01T06:08:38;52.55;;;47.92;;
56285;SDS011;42191;47.562;9.686;2023-01-01T06:11:06;51.90;;;47.40;;
56285;SDS011;42191;47.562;9.686;2023-01-01T06:13:33;50.17;;;45.85;;
56285;SDS011;42191;47.562;9.686;2023-01-01T06:16:00;49.72;;;45.45;;
56285;SDS011;42191;47.562;9.686;2023-01-01T06:18:31;49.72;;;45.45;;
56285;SDS011;42191;47.562;9.686;2023-01-01T06:21:12;49.15;;;45.05;;
56285;SDS011;42191;47.562;9.686;2023-01-01T06:23:39;48.63;;;44.60;;
56285;SDS011;42191;47.562;9.686;2023-01-01T06:28:34;47.00;;;43.17;;
56285;SDS011;42191;47.562;9.686;2023-01-01T06:31:01;48.45;;;44.72;;
56285;SDS011;42191;47.562;9.686;2023-01-01T06:33:28;45.80;;;42.30;;
56285;SDS011;42191;47.562;9.686;2023-01-01T06:35:54;45.40;;;41.72;;
56285;SDS011;42191;47.562;9.686;2023-01-01T06:38:20;44.90;;;41.40;;
56285;SDS011;42191;47.562;9.686;2023-01-01T06:40:57;45.88;;;42.42;;
56285;SDS011;42191;47.562;9.686;2023-01-01T06:43:25;44.05;;;40.83;;
56285;SDS011;42191;47.562;9.686;2023-01-01T06:46:04;44.28;;;41.10;;
56285;SDS011;42191;47.562;9.686;2023-01-01T06:48:33;41.88;;;38.90;;
56285;SDS011;42191;47.562;9.686;2023-01-01T06:51:04;44.78;;;41.35;;
56285;SDS011;42191;47.562;9.686;2023-01-01T06:53:32;40.57;;;37.57;;
56285;SDS011;42191;47.562;9.686;2023-01-01T06:55:58;45.00;;;41.58;;
56285;SDS011;42191;47.562;9.686;2023-01-01T06:58:24;44.15;;;40.65;;
56285;SDS011;42191;47.562;9.686;2023-01-01T07:00:50;43.80;;;40.50;;
56285;SDS011;42191;47.562;9.686;2023-01-01T07:03:17;46.28;;;42.50;;
56285;SDS011;42191;47.562;9.686;2023-01-01T07:05:43;42.92;;;39.83;;
56285;SDS011;42191;47.562;9.686;2023-01-01T07:08:09;42.70;;;39.55;;
56285;SDS011;42191;47.562;9.686;2023-01-01T07:10:35;43.00;;;40.00;;
56285;SDS011;42191;47.562;9.686;2023-01-01T07:13:01;44.22;;;40.85;;
56285;SDS011;42191;47.562;9.686;2023-01-01T07:15:27;40.92;;;38.00;;
56285;SDS011;42191;47.562;9.686;2023-01-01T07:17:53;44.38;;;41.10;;
56285;SDS011;42191;47.562;9.686;2023-01-01T07:20:19;43.15;;;39.85;;
56285;SDS011;42191;47.562;9.686;2023-01-01T07:22:46;41.88;;;38.72;;
56285;SDS011;42191;47.562;9.686;2023-01-01T07:25:13;41.53;;;38.72;;
56285;SDS011;42191;47.562;9.686;2023-01-01T07:27:40;41.30;;;38.47;;
56285;SDS011;42191;47.562;9.686;2023-01-01T07:30:06;40.92;;;38.08;;
56285;SDS011;42191;47.562;9.686;2023-01-01T07:32:33;42.90;;;39.90;;
56285;SDS011;42191;47.562;9.686;2023-01-01T07:34:59;42.67;;;39.67;;
56285;SDS011;42191;47.562;9.686;2023-01-01T07:37:25;40.08;;;37.28;;
56285;SDS011;42191;47.562;9.686;2023-01-01T07:39:51;43.10;;;39.90;;
56285;SDS011;42191;47.562;9.686;2023-01-01T07:42:17;43.00;;;39.75;;
56285;SDS011;42191;47.562;9.686;2023-01-01T07:44:43;42.67;;;39.67;;
56285;SDS011;42191;47.562;9.686;2023-01-01T07:47:17;41.20;;;38.40;;
56285;SDS011;42191;47.562;9.686;2023-01-01T07:49:43;40.58;;;37.88;;
56285;SDS011;42191;47.562;9.686;2023-01-01T07:52:09;39.75;;;37.05;;
56285;SDS011;42191;47.562;9.686;2023-01-01T07:54:35;39.75;;;37.05;;
56285;SDS011;42191;47.562;9.686;2023-01-01T07:57:02;39.80;;;37.13;;
56285;SDS011;42191;47.562;9.686;2023-01-01T07:59:28;39.35;;;36.65;;
56285;SDS011;42191;47.562;9.686;2023-01-01T08:01:54;38.80;;;36.30;;
56285;SDS011;42191;47.562;9.686;2023-01-01T08:04:20;39.97;;;37.17;;
56285;SDS011;42191;47.562;9.686;2023-01-01T08:06:46;40.15;;;37.45;;
56285;SDS011;42191;47.562;9.686;2023-01-01T08:09:12;40.00;;;37.30;;
56285;SDS011;42191;47.562;9.686;2023-01-01T08:11:38;39.20;;;36.50;;
56285;SDS011;42191;47.562;9.686;2023-01-01T08:14:04;41.08;;;38.22;;
56285;SDS011;42191;47.562;9.686;2023-01-01T08:16:30;39.92;;;37.22;;
56285;SDS011;42191;47.562;9.686;2023-01-01T08:18:56;41.55;;;38.75;;
56285;SDS011;42191;47.562;9.686;2023-01-01T08:21:22;38.97;;;36.13;;
56285;SDS011;42191;47.562;9.686;2023-01-01T08:23:48;39.63;;;36.95;;
56285;SDS011;42191;47.562;9.686;2023-01-01T08:26:15;38.50;;;35.92;;
56285;SDS011;42191;47.562;9.686;2023-01-01T08:28:42;40.55;;;37.75;;
56285;SDS011;42191;47.562;9.686;2023-01-01T08:31:08;40.67;;;37.83;;
56285;SDS011;42191;47.562;9.686;2023-01-01T08:33:34;40.20;;;37.22;;
56285;SDS011;42191;47.562;9.686;2023-01-01T08:36:01;38.55;;;35.95;;
56285;SDS011;42191;47.562;9.686;2023-01-01T08:38:27;37.95;;;35.38;;
56285;SDS011;42191;47.562;9.686;2023-01-01T08:40:53;39.85;;;37.25;;
56285;SDS011;42191;47.562;9.686;2023-01-01T08:43:19;40.70;;;37.90;;
56285;SDS011;42191;47.562;9.686;2023-01-01T08:45:45;41.28;;;38.47;;
56285;SDS011;42191;47.562;9.686;2023-01-01T08:48:12;39.83;;;37.08;;
56285;SDS011;42191;47.562;9.686;2023-01-01T08:50:38;42.55;;;39.58;;
56285;SDS011;42191;47.562;9.686;2023-01-01T08:53:04;40.67;;;37.83;;
56285;SDS011;42191;47.562;9.686;2023-01-01T08:55:30;42.55;;;39.45;;
56285;SDS011;42191;47.562;9.686;2023-01-01T08:57:56;41.30;;;38.30;;
56285;SDS011;42191;47.562;9.686;2023-01-01T09:00:22;40.47;;;37.50;;
56285;SDS011;42191;47.562;9.686;2023-01-01T09:02:48;41.10;;;38.10;;
56285;SDS011;42191;47.562;9.686;2023-01-01T09:05:14;41.17;;;38.20;;
56285;SDS011;42191;47.562;9.686;2023-01-01T09:07:40;43.58;;;40.35;;
56285;SDS011;42191;47.562;9.686;2023-01-01T09:10:06;40.63;;;37.60;;
56285;SDS011;42191;47.562;9.686;2023-01-01T09:12:33;38.95;;;36.20;;
56285;SDS011;42191;47.562;9.686;2023-01-01T09:15:00;41.22;;;38.17;;
56285;SDS011;42191;47.562;9.686;2023-01-01T09:17:26;43.55;;;40.33;;
56285;SDS011;42191;47.562;9.686;2023-01-01T09:19:52;38.58;;;35.88;;
56285;SDS011;42191;47.562;9.686;2023-01-01T09:22:18;42.10;;;39.08;;
56285;SDS011;42191;47.562;9.686;2023-01-01T09:24:44;44.53;;;40.58;;
56285;SDS011;42191;47.562;9.686;2023-01-01T09:27:10;44.42;;;40.85;;
56285;SDS011;42191;47.562;9.686;2023-01-01T09:29:36;44.13;;;40.55;;
56285;SDS011;42191;47.562;9.686;2023-01-01T09:32:02;45.03;;;41.63;;
56285;SDS011;42191;47.562;9.686;2023-01-01T09:34:28;48.53;;;44.58;;
56285;SDS011;42191;47.562;9.686;2023-01-01T09:36:55;47.72;;;43.70;;
56285;SDS011;42191;47.562;9.686;2023-01-01T09:39:21;49.08;;;44.95;;
56285;SDS011;42191;47.562;9.686;2023-01-01T09:47:25;50.20;;;45.90;;
56285;SDS011;42191;47.562;9.686;2023-01-01T09:49:55;51.22;;;46.70;;
56285;SDS011;42191;47.562;9.686;2023-01-01T09:52:38;49.17;;;45.10;;
56285;SDS011;42191;47.562;9.686;2023-01-01T09:58:09;49.92;;;45.97;;
56285;SDS011;42191;47.562;9.686;2023-01-01T10:00:36;49.97;;;45.67;;
56285;SDS011;42191;47.562;9.686;2023-01-01T10:03:18;48.47;;;44.50;;
56285;SDS011;42191;47.562;9.686;2023-01-01T10:06:10;47.50;;;43.75;;
56285;SDS011;42191;47.562;9.686;2023-01-01T10:14:31;45.55;;;41.55;;
56285;SDS011;42191;47.562;9.686;2023-01-01T10:17:05;45.53;;;41.78;;
56285;SDS011;42191;47.562;9.686;2023-01-01T10:19:49;47.00;;;43.20;;
56285;SDS011;42191;47.562;9.686;2023-01-01T10:22:21;46.90;;;43.28;;
56285;SDS011;42191;47.562;9.686;2023-01-01T10:24:58;45.70;;;41.90;;
56285;SDS011;42191;47.562;9.686;2023-01-01T10:27:53;43.80;;;40.20;;
56285;SDS011;42191;47.562;9.686;2023-01-01T10:30:30;47.22;;;43.35;;
56285;SDS011;42191;47.562;9.686;2023-01-01T10:32:57;46.25;;;42.35;;
56285;SDS011;42191;47.562;9.686;2023-01-01T10:35:40;46.25;;;42.60;;
56285;SDS011;42191;47.562;9.686;2023-01-01T10:38:22;46.78;;;43.08;;
56285;SDS011;42191;47.562;9.686;2023-01-01T10:41:07;43.65;;;40.13;;
56285;SDS011;42191;47.562;9.686;2023-01-01T10:43:35;47.87;;;43.90;;
56285;SDS011;42191;47.562;9.686;2023-01-01T10:46:02;47.53;;;43.65;;
56285;SDS011;42191;47.562;9.686;2023-01-01T10:48:30;44.17;;;40.38;;
56285;SDS011;42191;47.562;9.686;2023-01-01T10:56:09;40.03;;;37.22;;
56285;SDS011;42191;47.562;9.686;2023-01-01T11:01:06;39.67;;;36.97;;
56285;SDS011;42191;47.562;9.686;2023-01-01T11:03:34;33.95;;;31.75;;
56285;SDS011;42191;47.562;9.686;2023-01-01T11:08:39;33.30;;;31.00;;
56285;SDS011;42191;47.562;9.686;2023-01-01T11:11:17;34.17;;;31.75;;
56285;SDS011;42191;47.562;9.686;2023-01-01T11:13:47;35.28;;;33.00;;
56285;SDS011;42191;47.562;9.686;2023-01-01T11:16:15;33.97;;;31.77;;
56285;SDS011;42191;47.562;9.686;2023-01-01T11:18:41;33.10;;;31.00;;
56285;SDS011;42191;47.562;9.686;2023-01-01T11:21:08;32.45;;;30.45;;
56285;SDS011;42191;47.562;9.686;2023-01-01T11:23:35;31.85;;;29.85;;
56285;SDS011;42191;47.562;9.686;2023-01-01T11:26:17;33.70;;;31.60;;
56285;SDS011;42191;47.562;9.686;2023-01-01T11:28:58;34.28;;;32.17;;
56285;SDS011;42191;47.562;9.686;2023-01-01T11:31:46;33.60;;;31.50;;
56285;SDS011;42191;47.562;9.686;2023-01-01T11:34:35;33.05;;;31.05;;
56285;SDS011;42191;47.562;9.686;2023-01-01T11:39:48;32.50;;;30.50;;
56285;SDS011;42191;47.562;9.686;2023-01-01T11:42:17;32.88;;;30.77;;
56285;SDS011;42191;47.562;9.686;2023-01-01T11:44:55;34.00;;;31.92;;
56285;SDS011;42191;47.562;9.686;2023-01-01T11:50:05;31.33;;;29.40;;
56285;SDS011;42191;47.562;9.686;2023-01-01T11:52:52;32.33;;;30.33;;
56285;SDS011;42191;47.562;9.686;2023-01-01T11:55:36;32.95;;;30.95;;
56285;SDS011;42191;47.562;9.686;2023-01-01T12:00:41;32.88;;;30.83;;
56285;SDS011;42191;47.562;9.686;2023-01-01T12:06:05;33.53;;;31.52;;
56285;SDS011;42191;47.562;9.686;2023-01-01T12:08:53;32.35;;;30.35;;
56285;SDS011;42191;47.562;9.686;2023-01-01T12:11:26;31.58;;;29.60;;
56285;SDS011;42191;47.562;9.686;2023-01-01T12:19:39;32.33;;;30.33;;
56285;SDS011;42191;47.562;9.686;2023-01-01T12:22:16;30.15;;;28.35;;
56285;SDS011;42191;47.562;9.686;2023-01-01T12:27:40;33.28;;;31.27;;
56285;SDS011;42191;47.562;9.686;2023-01-01T12:36:06;31.23;;;29.27;;
56285;SDS011;42191;47.562;9.686;2023-01-01T12:41:31;30.92;;;29.02;;
56285;SDS011;42191;47.562;9.686;2023-01-01T12:47:16;31.30;;;29.40;;
56285;SDS011;42191;47.562;9.686;2023-01-01T12:50:00;31.67;;;29.67;;
56285;SDS011;42191;47.562;9.686;2023-01-01T12:56:17;33.47;;;31.48;;
56285;SDS011;42191;47.562;9.686;2023-01-01T12:58:25;32.72;;;30.73;;
56285;SDS011;42191;47.562;9.686;2023-01-01T13:01:12;31.77;;;29.77;;
56285;SDS011;42191;47.562;9.686;2023-01-01T13:06:16;31.40;;;29.48;;
56285;SDS011;42191;47.562;9.686;2023-01-01T13:08:49;31.83;;;29.92;;
56285;SDS011;42191;47.562;9.686;2023-01-01T13:11:19;30.63;;;28.77;;
56285;SDS011;42191;47.562;9.686;2023-01-01T13:13:49;30.55;;;28.75;;
56285;SDS011;42191;47.562;9.686;2023-01-01T13:16:30;34.30;;;32.20;;
56285;SDS011;42191;47.562;9.686;2023-01-01T13:19:01;32.92;;;30.92;;
56285;SDS011;42191;47.562;9.686;2023-01-01T13:21:28;31.42;;;29.52;;
56285;SDS011;42191;47.562;9.686;2023-01-01T13:24:00;31.90;;;30.00;;
56285;SDS011;42191;47.562;9.686;2023-01-01T13:26:32;31.67;;;29.73;;
56285;SDS011;42191;47.562;9.686;2023-01-01T13:45:37;30.95;;;29.05;;
56285;SDS011;42191;47.562;9.686;2023-01-01T14:04:56;32.10;;;30.10;;
56285;SDS011;42191;47.562;9.686;2023-01-01T14:07:28;32.95;;;30.85;;
56285;SDS011;42191;47.562;9.686;2023-01-01T14:10:37;29.80;;;27.90;;
56285;SDS011;42191;47.562;9.686;2023-01-01T14:12:56;30.08;;;28.17;;
56285;SDS011;42191;47.562;9.686;2023-01-01T14:15:34;29.70;;;27.90;;
56285;SDS011;42191;47.562;9.686;2023-01-01T14:18:04;29.83;;;27.88;;
56285;SDS011;42191;47.562;9.686;2023-01-01T14:20:36;30.58;;;28.58;;
56285;SDS011;42191;47.562;9.686;2023-01-01T14:23:21;29.45;;;27.55;;
56285;SDS011;42191;47.562;9.686;2023-01-01T14:25:55;30.95;;;28.75;;
56285;SDS011;42191;47.562;9.686;2023-01-01T14:28:24;31.10;;;29.05;;
56285;SDS011;42191;47.562;9.686;2023-01-01T14:30:52;33.42;;;31.15;;
56285;SDS011;42191;47.562;9.686;2023-01-01T14:33:27;32.75;;;30.73;;
56285;SDS011;42191;47.562;9.686;2023-01-01T14:35:59;31.00;;;29.10;;
56285;SDS011;42191;47.562;9.686;2023-01-01T14:41:14;33.83;;;31.63;;
56285;SDS011;42191;47.562;9.686;2023-01-01T14:43:46;30.20;;;28.30;;
56285;SDS011;42191;47.562;9.686;2023-01-01T14:46:15;31.05;;;29.05;;
56285;SDS011;42191;47.562;9.686;2023-01-01T14:48:43;32.63;;;30.63;;
56285;SDS011;42191;47.562;9.686;2023-01-01T14:51:20;30.55;;;28.65;;
56285;SDS011;42191;47.562;9.686;2023-01-01T14:53:49;31.52;;;29.58;;
56285;SDS011;42191;47.562;9.686;2023-01-01T14:56:23;31.05;;;29.05;;
56285;SDS011;42191;47.562;9.686;2023-01-01T14:58:52;30.30;;;28.20;;
56285;SDS011;42191;47.562;9.686;2023-01-01T15:01:23;29.73;;;27.85;;
56285;SDS011;42191;47.562;9.686;2023-01-01T15:03:54;30.80;;;28.50;;
56285;SDS011;42191;47.562;9.686;2023-01-01T15:06:21;31.20;;;29.30;;
56285;SDS011;42191;47.562;9.686;2023-01-01T15:08:49;29.83;;;27.92;;
56285;SDS011;42191;47.562;9.686;2023-01-01T15:11:15;31.60;;;29.40;;
56285;SDS011;42191;47.562;9.686;2023-01-01T15:13:57;31.27;;;29.27;;
56285;SDS011;42191;47.562;9.686;2023-01-01T15:16:25;30.33;;;28.42;;
56285;SDS011;42191;47.562;9.686;2023-01-01T15:18:52;31.90;;;29.52;;
56285;SDS011;42191;47.562;9.686;2023-01-01T15:23:57;32.60;;;30.48;;
56285;SDS011;42191;47.562;9.686;2023-01-01T15:26:32;32.95;;;30.85;;
56285;SDS011;42191;47.562;9.686;2023-01-01T15:29:25;34.50;;;32.22;;
56285;SDS011;42191;47.562;9.686;2023-01-01T15:34:31;36.60;;;33.90;;
56285;SDS011;42191;47.562;9.686;2023-01-01T15:37:13;39.30;;;36.00;;
56285;SDS011;42191;47.562;9.686;2023-01-01T15:39:49;38.30;;;35.60;;
56285;SDS011;42191;47.562;9.686;2023-01-01T15:42:20;35.87;;;33.37;;
56285;SDS011;42191;47.562;9.686;2023-01-01T15:44:53;33.80;;;31.27;;
56285;SDS011;42191;47.562;9.686;2023-01-01T15:47:19;36.13;;;33.47;;
56285;SDS011;42191;47.562;9.686;2023-01-01T15:50:05;37.85;;;35.30;;
56285;SDS011;42191;47.562;9.686;2023-01-01T15:52:35;34.88;;;32.58;;
56285;SDS011;42191;47.562;9.686;2023-01-01T15:55:02;35.17;;;32.88;;
56285;SDS011;42191;47.562;9.686;2023-01-01T15:57:29;35.22;;;32.78;;
56285;SDS011;42191;47.562;9.686;2023-01-01T15:59:55;36.83;;;34.33;;
56285;SDS011;42191;47.562;9.686;2023-01-01T16:02:24;36.47;;;33.90;;
56285;SDS011;42191;47.562;9.686;2023-01-01T16:04:56;35.28;;;32.97;;
56285;SDS011;42191;47.562;9.686;2023-01-01T16:07:24;35.17;;;32.88;;
56285;SDS011;42191;47.562;9.686;2023-01-01T16:09:51;35.60;;;33.30;;
56285;SDS011;42191;47.562;9.686;2023-01-01T16:12:19;34.38;;;32.17;;
56285;SDS011;42191;47.562;9.686;2023-01-01T16:14:45;37.00;;;34.60;;
56285;SDS011;42191;47.562;9.686;2023-01-01T16:17:13;34.25;;;32.05;;
56285;SDS011;42191;47.562;9.686;2023-01-01T16:19:41;34.60;;;32.10;;
56285;SDS011;42191;47.562;9.686;2023-01-01T16:22:11;36.97;;;34.67;;
56285;SDS011;42191;47.562;9.686;2023-01-01T16:24:39;34.72;;;32.50;;
56285;SDS011;42191;47.562;9.686;2023-01-01T16:27:06;35.80;;;33.30;;
56285;SDS011;42191;47.562;9.686;2023-01-01T16:29:33;36.47;;;33.97;;
56285;SDS011;42191;47.562;9.686;2023-01-01T16:31:59;37.70;;;35.28;;
56285;SDS011;42191;47.562;9.686;2023-01-01T16:34:25;36.97;;;34.38;;
56285;SDS011;42191;47.562;9.686;2023-01-01T16:36:51;35.92;;;33.42;;
56285;SDS011;42191;47.562;9.686;2023-01-01T16:39:17;35.40;;;33.00;;
56285;SDS011;42191;47.562;9.686;2023-01-01T16:41:43;37.72;;;35.28;;
56285;SDS011;42191;47.562;9.686;2023-01-01T16:44:10;37.55;;;35.10;;
56285;SDS011;42191;47.562;9.686;2023-01-01T16:46:39;34.50;;;32.30;;
56285;SDS011;42191;47.562;9.686;2023-01-01T16:49:06;34.97;;;32.78;;
56285;SDS011;42191;47.562;9.686;2023-01-01T16:51:32;34.67;;;32.45;;
56285;SDS011;42191;47.562;9.686;2023-01-01T16:53:59;34.83;;;32.65;;